sensor_id;sensor_type;location;lat;lon;timestamp;temperature;humidity
15426;DHT22;7812;50.072;7.036;2024-02-21T00:00:14;7.80;99.90
15426;DHT22;7812;50.072;7.036;2024-02-21T00:02:43;7.90;99.90
15426;DHT22;7812;50.072;7.036;2024-02-21T00:05:09;7.90;99.90
15426;DHT22;7812;50.072;7.036;2024-02-21T00:07:35;7.70;99.90
15426;DHT22;7812;50.072;7.036;2024-02-21T00:10:00;7.80;99.90
15426;DHT22;7812;50.072;7.036;2024-02-21T00:12:26;7.80;99.90
15426;DHT22;7812;50.072;7.036;2024-02-21T00:14:52;8.00;99.90
15426;DHT22;7812;50.072;7.036;2024-02-21T00:17:17;8.10;99.90
15426;DHT22;7812;50.072;7.036;2024-02-21T00:19:43;8.20;99.90
15426;DHT22;7812;50.072;7.036;2024-02-21T00:22:09;8.00;99.90
15426;DHT22;7812;50.072;7.036;2024-02-21T00:24:34;8.10;99.90
15426;DHT22;7812;50.072;7.036;2024-02-21T00:27:00;8.10;99.90
15426;DHT22;7812;50.072;7.036;2024-02-21T00:29:26;8.10;99.90
15426;DHT22;7812;50.072;7.036;2024-02-21T00:31:53;8.10;99.90
15426;DHT22;7812;50.072;7.036;2024-02-21T00:34:18;8.00;99.90
15426;DHT22;7812;50.072;7.036;2024-02-21T00:36:44;8.10;99.90
15426;DHT22;7812;50.072;7.036;2024-02-21T00:39:10;8.10;99.90
15426;DHT22;7812;50.072;7.036;2024-02-21T00:41:36;8.00;99.90
15426;DHT22;7812;50.072;7.036;2024-02-21T00:44:02;7.90;99.90
15426;DHT22;7812;50.072;7.036;2024-02-21T00:46:31;7.80;99.90
15426;DHT22;7812;50.072;7.036;2024-02-21T00:48:56;7.40;99.90
15426;DHT22;7812;50.072;7.036;2024-02-21T00:51:22;7.40;99.90
15426;DHT22;7812;50.072;7.036;2024-02-21T00:53:47;7.50;99.90
15426;DHT22;7812;50.072;7.036;2024-02-21T00:56:13;7.60;99.90
15426;DHT22;7812;50.072;7.036;2024-02-21T00:58:39;7.50;99.90
15426;DHT22;7812;50.072;7.036;2024-02-21T01:01:04;7.30;99.90
15426;DHT22;7812;50.072;7.036;2024-02-21T01:03:30;7.10;99.90
15426;DHT22;7812;50.072;7.036;2024-02-21T01:05:56;7.10;99.90
15426;DHT22;7812;50.072;7.036;2024-02-21T01:08:21;7.20;99.90
15426;DHT22;7812;50.072;7.036;2024-02-21T01:10:47;7.40;99.90
15426;DHT22;7812;50.072;7.036;2024-02-21T01:13:13;7.70;99.90
15426;DHT22;7812;50.072;7.036;2024-02-21T01:15:38;7.80;99.90
15426;DHT22;7812;50.072;7.036;2024-02-21T01:18:04;7.70;99.90
15426;DHT22;7812;50.072;7.036;2024-02-21T01:20:30;7.80;99.90
15426;DHT22;7812;50.072;7.036;2024-02-21T01:22:56;7.70;99.90
15426;DHT22;7812;50.072;7.036;2024-02-21T01:25:23;7.80;99.90
15426;DHT22;7812;50.072;7.036;2024-02-21T01:27:48;7.80;99.90
15426;DHT22;7812;50.072;7.036;2024-02-21T01:30:14;8.00;99.90
15426;DHT22;7812;50.072;7.036;2024-02-21T01:32:40;8.00;99.90
15426;DHT22;7812;50.072;7.036;2024-02-21T01:35:07;8.00;99.90
15426;DHT22;7812;50.072;7.036;2024-02-21T01:37:32;8.10;99.90
15426;DHT22;7812;50.072;7.036;2024-02-21T01:39:58;8.20;99.90
15426;DHT22;7812;50.072;7.036;2024-02-21T01:42:24;8.10;99.90
15426;DHT22;7812;50.072;7.036;2024-02-21T01:44:49;8.10;99.90
15426;DHT22;7812;50.072;7.036;2024-02-21T01:47:16;8.00;99.90
15426;DHT22;7812;50.072;7.036;2024-02-21T01:49:43;8.10;99.90
15426;DHT22;7812;50.072;7.036;2024-02-21T01:52:09;8.00;99.90
15426;DHT22;7812;50.072;7.036;2024-02-21T01:54:36;7.90;99.90
15426;DHT22;7812;50.072;7.036;2024-02-21T01:57:02;7.90;99.90
15426;DHT22;7812;50.072;7.036;2024-02-21T01:59:28;7.90;99.90
15426;DHT22;7812;50.072;7.036;2024-02-21T02:01:55;8.00;99.90
15426;DHT22;7812;50.072;7.036;2024-02-21T02:04:21;8.00;99.90
15426;DHT22;7812;50.072;7.036;2024-02-21T02:06:48;7.90;99.90
15426;DHT22;7812;50.072;7.036;2024-02-21T02:09:14;7.80;99.90
15426;DHT22;7812;50.072;7.036;2024-02-21T02:11:40;7.60;99.90
15426;DHT22;7812;50.072;7.036;2024-02-21T02:14:07;7.70;99.90
15426;DHT22;7812;50.072;7.036;2024-02-21T02:16:33;7.90;99.90
15426;DHT22;7812;50.072;7.036;2024-02-21T02:18:59;7.90;99.90
15426;DHT22;7812;50.072;7.036;2024-02-21T02:21:30;7.70;99.90
15426;DHT22;7812;50.072;7.036;2024-02-21T02:23:59;7.80;99.90
15426;DHT22;7812;50.072;7.036;2024-02-21T02:26:24;7.90;99.90
15426;DHT22;7812;50.072;7.036;2024-02-21T02:28:50;8.00;99.90
15426;DHT22;7812;50.072;7.036;2024-02-21T02:31:15;8.00;99.90
15426;DHT22;7812;50.072;7.036;2024-02-21T02:33:43;7.90;99.90
15426;DHT22;7812;50.072;7.036;2024-02-21T02:36:09;7.90;99.90
15426;DHT22;7812;50.072;7.036;2024-02-21T02:38:35;7.90;99.90
15426;DHT22;7812;50.072;7.036;2024-02-21T02:41:01;8.00;99.90
15426;DHT22;7812;50.072;7.036;2024-02-21T02:43:26;7.90;99.90
15426;DHT22;7812;50.072;7.036;2024-02-21T02:45:52;7.90;99.90
15426;DHT22;7812;50.072;7.036;2024-02-21T02:48:18;7.80;99.90
15426;DHT22;7812;50.072;7.036;2024-02-21T02:50:45;7.70;99.90
15426;DHT22;7812;50.072;7.036;2024-02-21T02:53:11;7.60;99.90
15426;DHT22;7812;50.072;7.036;2024-02-21T02:55:37;7.60;99.90
15426;DHT22;7812;50.072;7.036;2024-02-21T02:58:03;7.60;99.90
15426;DHT22;7812;50.072;7.036;2024-02-21T03:00:28;7.70;99.90
15426;DHT22;7812;50.072;7.036;2024-02-21T03:02:54;7.70;99.90
15426;DHT22;7812;50.072;7.036;2024-02-21T03:05:21;7.70;99.90
15426;DHT22;7812;50.072;7.036;2024-02-21T03:07:47;7.70;99.90
15426;DHT22;7812;50.072;7.036;2024-02-21T03:10:13;7.80;99.90
15426;DHT22;7812;50.072;7.036;2024-02-21T03:12:39;7.80;99.90
15426;DHT22;7812;50.072;7.036;2024-02-21T03:15:06;7.90;99.90
15426;DHT22;7812;50.072;7.036;2024-02-21T03:17:32;7.80;99.90
15426;DHT22;7812;50.072;7.036;2024-02-21T03:20:00;7.80;99.90
15426;DHT22;7812;50.072;7.036;2024-02-21T03:22:26;7.70;99.90
15426;DHT22;7812;50.072;7.036;2024-02-21T03:24:51;7.70;99.90
15426;DHT22;7812;50.072;7.036;2024-02-21T03:27:17;7.70;99.90
15426;DHT22;7812;50.072;7.036;2024-02-21T03:29:43;7.60;99.90
15426;DHT22;7812;50.072;7.036;2024-02-21T03:32:09;7.70;99.90
15426;DHT22;7812;50.072;7.036;2024-02-21T03:34:35;7.80;99.90
15426;DHT22;7812;50.072;7.036;2024-02-21T03:37:00;7.70;99.90
15426;DHT22;7812;50.072;7.036;2024-02-21T03:39:26;7.90;99.90
15426;DHT22;7812;50.072;7.036;2024-02-21T03:41:52;8.00;99.90
15426;DHT22;7812;50.072;7.036;2024-02-21T03:44:18;8.10;99.90
15426;DHT22;7812;50.072;7.036;2024-02-21T03:46:43;8.00;99.90
15426;DHT22;7812;50.072;7.036;2024-02-21T03:49:09;7.90;99.90
15426;DHT22;7812;50.072;7.036;2024-02-21T03:51:35;8.00;99.90
15426;DHT22;7812;50.072;7.036;2024-02-21T03:54:00;7.90;99.90
15426;DHT22;7812;50.072;7.036;2024-02-21T03:56:26;7.90;99.90
15426;DHT22;7812;50.072;7.036;2024-02-21T03:58:52;8.00;99.90
15426;DHT22;7812;50.072;7.036;2024-02-21T04:01:17;8.10;99.90
15426;DHT22;7812;50.072;7.036;2024-02-21T04:03:44;8.20;99.90
15426;DHT22;7812;50.072;7.036;2024-02-21T04:06:09;8.20;99.90
15426;DHT22;7812;50.072;7.036;2024-02-21T04:08:35;8.00;99.90
15426;DHT22;7812;50.072;7.036;2024-02-21T04:11:01;7.90;99.90
15426;DHT22;7812;50.072;7.036;2024-02-21T04:13:27;8.00;99.90
15426;DHT22;7812;50.072;7.036;2024-02-21T04:15:52;7.90;99.90
15426;DHT22;7812;50.072;7.036;2024-02-21T04:18:18;7.90;99.90
15426;DHT22;7812;50.072;7.036;2024-02-21T04:20:44;7.90;99.90
15426;DHT22;7812;50.072;7.036;2024-02-21T04:23:09;8.00;99.90
15426;DHT22;7812;50.072;7.036;2024-02-21T04:25:36;8.00;99.90
15426;DHT22;7812;50.072;7.036;2024-02-21T04:28:01;8.00;99.90
15426;DHT22;7812;50.072;7.036;2024-02-21T04:30:28;8.10;99.90
15426;DHT22;7812;50.072;7.036;2024-02-21T04:32:54;8.30;99.90
15426;DHT22;7812;50.072;7.036;2024-02-21T04:35:19;8.30;99.90
15426;DHT22;7812;50.072;7.036;2024-02-21T04:37:45;8.40;99.90
15426;DHT22;7812;50.072;7.036;2024-02-21T04:40:11;8.40;99.90
15426;DHT22;7812;50.072;7.036;2024-02-21T04:42:37;8.30;99.90
15426;DHT22;7812;50.072;7.036;2024-02-21T04:45:03;8.10;99.90
15426;DHT22;7812;50.072;7.036;2024-02-21T04:47:29;7.80;99.90
15426;DHT22;7812;50.072;7.036;2024-02-21T04:49:55;7.60;99.90
15426;DHT22;7812;50.072;7.036;2024-02-21T04:52:20;7.60;99.90
15426;DHT22;7812;50.072;7.036;2024-02-21T04:54:46;7.70;99.90
15426;DHT22;7812;50.072;7.036;2024-02-21T04:57:12;7.80;99.90
15426;DHT22;7812;50.072;7.036;2024-02-21T04:59:45;7.80;99.90
15426;DHT22;7812;50.072;7.036;2024-02-21T05:02:13;7.90;99.90
15426;DHT22;7812;50.072;7.036;2024-02-21T05:04:39;8.00;99.90
15426;DHT22;7812;50.072;7.036;2024-02-21T05:07:05;8.00;99.90
15426;DHT22;7812;50.072;7.036;2024-02-21T05:09:31;7.90;99.90
15426;DHT22;7812;50.072;7.036;2024-02-21T05:11:57;7.90;99.90
15426;DHT22;7812;50.072;7.036;2024-02-21T05:14:25;7.90;99.90
15426;DHT22;7812;50.072;7.036;2024-02-21T05:16:50;7.80;99.90
15426;DHT22;7812;50.072;7.036;2024-02-21T05:19:16;7.80;99.90
15426;DHT22;7812;50.072;7.036;2024-02-21T05:21:41;7.70;99.90
15426;DHT22;7812;50.072;7.036;2024-02-21T05:24:07;7.70;99.90
15426;DHT22;7812;50.072;7.036;2024-02-21T05:26:33;7.70;99.90
15426;DHT22;7812;50.072;7.036;2024-02-21T05:28:58;7.70;99.90
15426;DHT22;7812;50.072;7.036;2024-02-21T05:31:25;7.80;99.90
15426;DHT22;7812;50.072;7.036;2024-02-21T05:33:51;7.70;99.90
15426;DHT22;7812;50.072;7.036;2024-02-21T05:36:16;7.70;99.90
15426;DHT22;7812;50.072;7.036;2024-02-21T05:38:42;7.80;99.90
15426;DHT22;7812;50.072;7.036;2024-02-21T05:41:08;7.80;99.90
15426;DHT22;7812;50.072;7.036;2024-02-21T05:43:33;7.70;99.90
15426;DHT22;7812;50.072;7.036;2024-02-21T05:45:59;7.70;99.90
15426;DHT22;7812;50.072;7.036;2024-02-21T05:48:25;7.70;99.90
15426;DHT22;7812;50.072;7.036;2024-02-21T05:50:51;7.70;99.90
15426;DHT22;7812;50.072;7.036;2024-02-21T05:53:16;7.70;99.90
15426;DHT22;7812;50.072;7.036;2024-02-21T05:55:42;7.60;99.90
15426;DHT22;7812;50.072;7.036;2024-02-21T05:58:08;7.80;99.90
15426;DHT22;7812;50.072;7.036;2024-02-21T06:00:37;7.80;99.90
15426;DHT22;7812;50.072;7.036;2024-02-21T06:03:03;7.80;99.90
15426;DHT22;7812;50.072;7.036;2024-02-21T06:05:28;7.80;99.90
15426;DHT22;7812;50.072;7.036;2024-02-21T06:07:54;7.80;99.90
15426;DHT22;7812;50.072;7.036;2024-02-21T06:10:20;7.90;99.90
15426;DHT22;7812;50.072;7.036;2024-02-21T06:12:46;7.80;99.90
15426;DHT22;7812;50.072;7.036;2024-02-21T06:15:12;7.60;99.90
15426;DHT22;7812;50.072;7.036;2024-02-21T06:17:37;7.60;99.90
15426;DHT22;7812;50.072;7.036;2024-02-21T06:20:03;7.70;99.90
15426;DHT22;7812;50.072;7.036;2024-02-21T06:22:30;7.80;99.90
15426;DHT22;7812;50.072;7.036;2024-02-21T06:24:56;7.70;99.90
15426;DHT22;7812;50.072;7.036;2024-02-21T06:27:21;7.90;99.90
15426;DHT22;7812;50.072;7.036;2024-02-21T06:29:47;7.90;99.90
15426;DHT22;7812;50.072;7.036;2024-02-21T06:32:13;8.00;99.90
15426;DHT22;7812;50.072;7.036;2024-02-21T06:34:38;7.90;99.90
15426;DHT22;7812;50.072;7.036;2024-02-21T06:37:04;7.90;99.90
15426;DHT22;7812;50.072;7.036;2024-02-21T06:39:30;7.90;99.90
15426;DHT22;7812;50.072;7.036;2024-02-21T06:41:55;8.10;99.90
15426;DHT22;7812;50.072;7.036;2024-02-21T06:44:22;8.00;99.90
15426;DHT22;7812;50.072;7.036;2024-02-21T06:46:48;8.10;99.90
15426;DHT22;7812;50.072;7.036;2024-02-21T06:49:13;8.10;99.90
15426;DHT22;7812;50.072;7.036;2024-02-21T06:51:44;8.00;99.90
15426;DHT22;7812;50.072;7.036;2024-02-21T06:54:10;8.00;99.90
15426;DHT22;7812;50.072;7.036;2024-02-21T06:56:36;7.90;99.90
15426;DHT22;7812;50.072;7.036;2024-02-21T06:59:02;7.80;99.90
15426;DHT22;7812;50.072;7.036;2024-02-21T07:01:29;7.70;99.90
15426;DHT22;7812;50.072;7.036;2024-02-21T07:03:55;7.70;99.90
15426;DHT22;7812;50.072;7.036;2024-02-21T07:06:21;7.60;99.90
15426;DHT22;7812;50.072;7.036;2024-02-21T07:08:47;7.70;99.90
15426;DHT22;7812;50.072;7.036;2024-02-21T07:11:13;7.70;99.90
15426;DHT22;7812;50.072;7.036;2024-02-21T07:13:38;7.70;99.90
15426;DHT22;7812;50.072;7.036;2024-02-21T07:16:05;7.90;99.90
15426;DHT22;7812;50.072;7.036;2024-02-21T07:18:30;8.00;99.90
15426;DHT22;7812;50.072;7.036;2024-02-21T07:20:56;8.00;99.90
15426;DHT22;7812;50.072;7.036;2024-02-21T07:23:22;8.00;99.90
15426;DHT22;7812;50.072;7.036;2024-02-21T07:25:48;7.90;99.90
15426;DHT22;7812;50.072;7.036;2024-02-21T07:28:13;7.90;99.90
15426;DHT22;7812;50.072;7.036;2024-02-21T07:30:40;8.00;99.90
15426;DHT22;7812;50.072;7.036;2024-02-21T07:33:06;8.00;99.90
15426;DHT22;7812;50.072;7.036;2024-02-21T07:35:32;8.10;99.90
15426;DHT22;7812;50.072;7.036;2024-02-21T07:37:58;8.20;99.90
15426;DHT22;7812;50.072;7.036;2024-02-21T07:40:24;8.30;99.90
15426;DHT22;7812;50.072;7.036;2024-02-21T07:42:50;8.20;99.90
15426;DHT22;7812;50.072;7.036;2024-02-21T07:45:15;8.30;99.90
15426;DHT22;7812;50.072;7.036;2024-02-21T07:47:41;8.20;99.90
15426;DHT22;7812;50.072;7.036;2024-02-21T07:50:07;8.10;99.90
15426;DHT22;7812;50.072;7.036;2024-02-21T07:52:33;8.00;99.90
15426;DHT22;7812;50.072;7.036;2024-02-21T07:54:59;8.00;99.90
15426;DHT22;7812;50.072;7.036;2024-02-21T07:57:25;8.10;99.90
15426;DHT22;7812;50.072;7.036;2024-02-21T07:59:51;8.00;99.90
15426;DHT22;7812;50.072;7.036;2024-02-21T08:02:16;8.20;99.90
15426;DHT22;7812;50.072;7.036;2024-02-21T08:04:43;8.20;99.90
15426;DHT22;7812;50.072;7.036;2024-02-21T08:07:09;8.10;99.90
15426;DHT22;7812;50.072;7.036;2024-02-21T08:09:35;8.00;99.90
15426;DHT22;7812;50.072;7.036;2024-02-21T08:12:03;8.00;99.90
15426;DHT22;7812;50.072;7.036;2024-02-21T08:14:29;8.10;99.90
15426;DHT22;7812;50.072;7.036;2024-02-21T08:16:55;8.10;99.90
15426;DHT22;7812;50.072;7.036;2024-02-21T08:19:21;8.20;99.90
15426;DHT22;7812;50.072;7.036;2024-02-21T08:21:48;8.30;99.90
15426;DHT22;7812;50.072;7.036;2024-02-21T08:24:14;8.20;99.90
15426;DHT22;7812;50.072;7.036;2024-02-21T08:26:43;8.00;99.90
15426;DHT22;7812;50.072;7.036;2024-02-21T08:29:11;8.10;99.90
15426;DHT22;7812;50.072;7.036;2024-02-21T08:31:37;8.30;99.90
15426;DHT22;7812;50.072;7.036;2024-02-21T08:34:03;8.30;99.90
15426;DHT22;7812;50.072;7.036;2024-02-21T08:36:33;8.20;99.90
15426;DHT22;7812;50.072;7.036;2024-02-21T08:38:59;8.20;99.90
15426;DHT22;7812;50.072;7.036;2024-02-21T08:41:25;8.20;99.90
15426;DHT22;7812;50.072;7.036;2024-02-21T08:43:52;8.20;99.90
15426;DHT22;7812;50.072;7.036;2024-02-21T08:46:22;8.20;99.90
15426;DHT22;7812;50.072;7.036;2024-02-21T08:48:50;8.30;99.90
15426;DHT22;7812;50.072;7.036;2024-02-21T08:51:17;8.40;99.90
15426;DHT22;7812;50.072;7.036;2024-02-21T08:53:43;8.50;99.90
15426;DHT22;7812;50.072;7.036;2024-02-21T08:56:09;8.40;99.90
15426;DHT22;7812;50.072;7.036;2024-02-21T08:58:36;8.50;99.90
15426;DHT22;7812;50.072;7.036;2024-02-21T09:01:03;8.40;99.90
15426;DHT22;7812;50.072;7.036;2024-02-21T09:03:33;8.50;99.90
15426;DHT22;7812;50.072;7.036;2024-02-21T09:06:00;8.50;99.90
15426;DHT22;7812;50.072;7.036;2024-02-21T09:08:26;8.50;99.90
15426;DHT22;7812;50.072;7.036;2024-02-21T09:10:52;8.50;99.90
15426;DHT22;7812;50.072;7.036;2024-02-21T09:13:18;8.70;99.90
15426;DHT22;7812;50.072;7.036;2024-02-21T09:15:44;8.70;99.90
15426;DHT22;7812;50.072;7.036;2024-02-21T09:18:10;8.80;99.90
15426;DHT22;7812;50.072;7.036;2024-02-21T09:20:35;8.80;99.90
15426;DHT22;7812;50.072;7.036;2024-02-21T09:23:01;8.90;99.90
15426;DHT22;7812;50.072;7.036;2024-02-21T09:25:27;8.90;99.90
15426;DHT22;7812;50.072;7.036;2024-02-21T09:27:54;9.10;99.90
15426;DHT22;7812;50.072;7.036;2024-02-21T09:30:20;9.20;99.90
15426;DHT22;7812;50.072;7.036;2024-02-21T09:32:46;9.30;99.90
15426;DHT22;7812;50.072;7.036;2024-02-21T09:35:12;9.30;99.90
15426;DHT22;7812;50.072;7.036;2024-02-21T09:37:38;9.40;99.90
15426;DHT22;7812;50.072;7.036;2024-02-21T09:40:05;9.40;99.90
15426;DHT22;7812;50.072;7.036;2024-02-21T09:42:41;9.60;99.90
15426;DHT22;7812;50.072;7.036;2024-02-21T09:45:23;9.50;99.90
15426;DHT22;7812;50.072;7.036;2024-02-21T09:50:34;9.50;99.90
15426;DHT22;7812;50.072;7.036;2024-02-21T09:53:02;9.60;99.90
15426;DHT22;7812;50.072;7.036;2024-02-21T09:55:31;9.70;99.90
15426;DHT22;7812;50.072;7.036;2024-02-21T09:58:01;9.70;99.90
15426;DHT22;7812;50.072;7.036;2024-02-21T10:00:27;9.70;99.90
15426;DHT22;7812;50.072;7.036;2024-02-21T10:02:53;9.60;99.90
15426;DHT22;7812;50.072;7.036;2024-02-21T10:05:19;9.70;99.90
15426;DHT22;7812;50.072;7.036;2024-02-21T10:07:45;9.80;99.90
15426;DHT22;7812;50.072;7.036;2024-02-21T10:10:11;9.90;99.90
15426;DHT22;7812;50.072;7.036;2024-02-21T10:12:50;9.90;99.90
15426;DHT22;7812;50.072;7.036;2024-02-21T10:15:20;9.90;99.90
15426;DHT22;7812;50.072;7.036;2024-02-21T10:17:48;9.80;99.90
15426;DHT22;7812;50.072;7.036;2024-02-21T10:20:14;9.80;99.90
15426;DHT22;7812;50.072;7.036;2024-02-21T10:22:40;9.70;99.90
15426;DHT22;7812;50.072;7.036;2024-02-21T10:25:07;9.70;99.90
15426;DHT22;7812;50.072;7.036;2024-02-21T10:27:33;9.70;99.90
15426;DHT22;7812;50.072;7.036;2024-02-21T10:29:59;9.60;99.90
15426;DHT22;7812;50.072;7.036;2024-02-21T10:32:25;9.70;99.90
15426;DHT22;7812;50.072;7.036;2024-02-21T10:35:01;9.70;99.90
15426;DHT22;7812;50.072;7.036;2024-02-21T10:37:28;9.90;99.90
15426;DHT22;7812;50.072;7.036;2024-02-21T10:39:54;9.90;99.90
15426;DHT22;7812;50.072;7.036;2024-02-21T10:42:21;9.90;99.90
15426;DHT22;7812;50.072;7.036;2024-02-21T10:44:50;9.90;99.90
15426;DHT22;7812;50.072;7.036;2024-02-21T10:47:17;9.80;99.90
15426;DHT22;7812;50.072;7.036;2024-02-21T10:49:49;9.70;99.90
15426;DHT22;7812;50.072;7.036;2024-02-21T10:52:59;9.60;99.90
15426;DHT22;7812;50.072;7.036;2024-02-21T10:55:06;9.70;99.90
15426;DHT22;7812;50.072;7.036;2024-02-21T10:57:35;9.90;99.90
15426;DHT22;7812;50.072;7.036;2024-02-21T11:00:03;10.00;99.90
15426;DHT22;7812;50.072;7.036;2024-02-21T11:02:34;10.00;99.90
15426;DHT22;7812;50.072;7.036;2024-02-21T11:05:01;10.00;99.90
15426;DHT22;7812;50.072;7.036;2024-02-21T11:07:29;10.00;99.90
15426;DHT22;7812;50.072;7.036;2024-02-21T11:09:58;10.10;99.90
15426;DHT22;7812;50.072;7.036;2024-02-21T11:12:25;10.20;99.90
15426;DHT22;7812;50.072;7.036;2024-02-21T11:14:52;10.20;99.90
15426;DHT22;7812;50.072;7.036;2024-02-21T11:17:19;10.20;99.90
15426;DHT22;7812;50.072;7.036;2024-02-21T11:19:45;10.40;99.90
15426;DHT22;7812;50.072;7.036;2024-02-21T11:22:17;10.40;99.90
15426;DHT22;7812;50.072;7.036;2024-02-21T11:24:43;10.40;99.90
15426;DHT22;7812;50.072;7.036;2024-02-21T11:29:45;10.50;99.90
15426;DHT22;7812;50.072;7.036;2024-02-21T11:32:14;10.40;99.90
15426;DHT22;7812;50.072;7.036;2024-02-21T11:34:41;10.40;99.90
15426;DHT22;7812;50.072;7.036;2024-02-21T11:37:14;10.40;99.90
15426;DHT22;7812;50.072;7.036;2024-02-21T11:39:42;10.20;99.90
15426;DHT22;7812;50.072;7.036;2024-02-21T11:42:08;10.00;99.90
15426;DHT22;7812;50.072;7.036;2024-02-21T11:44:35;10.00;99.90
15426;DHT22;7812;50.072;7.036;2024-02-21T11:47:06;10.10;99.90
15426;DHT22;7812;50.072;7.036;2024-02-21T11:49:37;10.20;99.90
15426;DHT22;7812;50.072;7.036;2024-02-21T11:52:04;10.30;99.90
15426;DHT22;7812;50.072;7.036;2024-02-21T11:54:31;10.20;99.90
15426;DHT22;7812;50.072;7.036;2024-02-21T11:56:57;10.00;99.90
15426;DHT22;7812;50.072;7.036;2024-02-21T11:59:22;10.00;99.90
15426;DHT22;7812;50.072;7.036;2024-02-21T12:01:49;10.10;99.90
15426;DHT22;7812;50.072;7.036;2024-02-21T12:04:15;10.30;99.90
15426;DHT22;7812;50.072;7.036;2024-02-21T12:06:45;10.00;99.90
15426;DHT22;7812;50.072;7.036;2024-02-21T12:09:17;10.10;99.90
15426;DHT22;7812;50.072;7.036;2024-02-21T12:11:44;10.00;99.90
15426;DHT22;7812;50.072;7.036;2024-02-21T12:14:10;10.10;99.90
15426;DHT22;7812;50.072;7.036;2024-02-21T12:16:36;10.10;99.90
15426;DHT22;7812;50.072;7.036;2024-02-21T12:19:03;10.30;99.90
15426;DHT22;7812;50.072;7.036;2024-02-21T12:21:33;10.40;99.90
15426;DHT22;7812;50.072;7.036;2024-02-21T12:26:55;10.50;99.90
15426;DHT22;7812;50.072;7.036;2024-02-21T12:29:22;10.50;99.90
15426;DHT22;7812;50.072;7.036;2024-02-21T12:31:48;10.60;99.90
15426;DHT22;7812;50.072;7.036;2024-02-21T12:34:15;10.50;99.90
15426;DHT22;7812;50.072;7.036;2024-02-21T12:36:43;10.40;99.90
15426;DHT22;7812;50.072;7.036;2024-02-21T12:39:10;10.60;99.90
15426;DHT22;7812;50.072;7.036;2024-02-21T12:41:36;10.70;99.90
15426;DHT22;7812;50.072;7.036;2024-02-21T12:44:04;10.80;99.90
15426;DHT22;7812;50.072;7.036;2024-02-21T12:46:35;10.90;99.90
15426;DHT22;7812;50.072;7.036;2024-02-21T12:49:04;10.80;99.90
15426;DHT22;7812;50.072;7.036;2024-02-21T12:51:31;10.90;99.90
15426;DHT22;7812;50.072;7.036;2024-02-21T12:53:57;11.10;99.90
15426;DHT22;7812;50.072;7.036;2024-02-21T12:56:23;11.10;99.90
15426;DHT22;7812;50.072;7.036;2024-02-21T12:58:50;11.10;99.90
15426;DHT22;7812;50.072;7.036;2024-02-21T13:01:16;11.30;99.90
15426;DHT22;7812;50.072;7.036;2024-02-21T13:03:41;11.10;99.90
15426;DHT22;7812;50.072;7.036;2024-02-21T13:06:07;11.10;99.90
15426;DHT22;7812;50.072;7.036;2024-02-21T13:08:36;11.20;99.90
15426;DHT22;7812;50.072;7.036;2024-02-21T13:11:02;11.40;99.90
15426;DHT22;7812;50.072;7.036;2024-02-21T13:13:28;11.50;99.90
15426;DHT22;7812;50.072;7.036;2024-02-21T13:15:54;11.30;99.90
15426;DHT22;7812;50.072;7.036;2024-02-21T13:18:19;11.50;99.90
15426;DHT22;7812;50.072;7.036;2024-02-21T13:20:45;11.60;99.90
15426;DHT22;7812;50.072;7.036;2024-02-21T13:23:11;11.40;99.90
15426;DHT22;7812;50.072;7.036;2024-02-21T13:25:36;11.80;99.90
15426;DHT22;7812;50.072;7.036;2024-02-21T13:28:02;11.80;99.90
15426;DHT22;7812;50.072;7.036;2024-02-21T13:30:29;11.70;99.90
15426;DHT22;7812;50.072;7.036;2024-02-21T13:32:54;11.50;99.90
15426;DHT22;7812;50.072;7.036;2024-02-21T13:35:20;11.50;99.90
15426;DHT22;7812;50.072;7.036;2024-02-21T13:37:46;11.50;99.90
15426;DHT22;7812;50.072;7.036;2024-02-21T13:40:12;11.10;99.90
15426;DHT22;7812;50.072;7.036;2024-02-21T13:42:40;11.30;99.90
15426;DHT22;7812;50.072;7.036;2024-02-21T13:45:07;11.50;99.90
15426;DHT22;7812;50.072;7.036;2024-02-21T13:47:35;11.70;99.90
15426;DHT22;7812;50.072;7.036;2024-02-21T13:50:05;11.50;99.90
15426;DHT22;7812;50.072;7.036;2024-02-21T13:52:34;11.50;99.90
15426;DHT22;7812;50.072;7.036;2024-02-21T13:55:00;11.40;99.90
15426;DHT22;7812;50.072;7.036;2024-02-21T13:57:26;11.60;99.90
15426;DHT22;7812;50.072;7.036;2024-02-21T13:59:51;11.60;99.90
15426;DHT22;7812;50.072;7.036;2024-02-21T14:02:17;11.60;99.90
15426;DHT22;7812;50.072;7.036;2024-02-21T14:04:43;11.40;99.90
15426;DHT22;7812;50.072;7.036;2024-02-21T14:07:09;11.50;99.90
15426;DHT22;7812;50.072;7.036;2024-02-21T14:09:34;11.60;99.90
15426;DHT22;7812;50.072;7.036;2024-02-21T14:12:00;11.50;99.90
15426;DHT22;7812;50.072;7.036;2024-02-21T14:14:26;11.40;99.90
15426;DHT22;7812;50.072;7.036;2024-02-21T14:16:51;11.50;99.90
15426;DHT22;7812;50.072;7.036;2024-02-21T14:19:17;11.50;99.90
15426;DHT22;7812;50.072;7.036;2024-02-21T14:21:44;11.50;99.90
15426;DHT22;7812;50.072;7.036;2024-02-21T14:24:11;11.50;99.90
15426;DHT22;7812;50.072;7.036;2024-02-21T14:26:38;11.40;99.90
15426;DHT22;7812;50.072;7.036;2024-02-21T14:29:04;11.30;99.90
15426;DHT22;7812;50.072;7.036;2024-02-21T14:31:33;11.20;99.90
15426;DHT22;7812;50.072;7.036;2024-02-21T14:33:58;11.00;99.90
15426;DHT22;7812;50.072;7.036;2024-02-21T14:36:25;10.90;99.90
15426;DHT22;7812;50.072;7.036;2024-02-21T14:38:51;10.80;99.90
15426;DHT22;7812;50.072;7.036;2024-02-21T14:41:18;10.80;99.90
15426;DHT22;7812;50.072;7.036;2024-02-21T14:43:44;10.80;99.90
15426;DHT22;7812;50.072;7.036;2024-02-21T14:46:10;10.60;99.90
15426;DHT22;7812;50.072;7.036;2024-02-21T14:48:38;10.50;99.90
15426;DHT22;7812;50.072;7.036;2024-02-21T14:51:04;10.40;99.90
15426;DHT22;7812;50.072;7.036;2024-02-21T14:53:30;10.40;99.90
15426;DHT22;7812;50.072;7.036;2024-02-21T14:55:56;10.30;99.90
15426;DHT22;7812;50.072;7.036;2024-02-21T14:58:23;10.30;99.90
15426;DHT22;7812;50.072;7.036;2024-02-21T15:00:49;10.20;99.90
15426;DHT22;7812;50.072;7.036;2024-02-21T15:03:16;10.20;99.90
15426;DHT22;7812;50.072;7.036;2024-02-21T15:05:45;10.20;99.90
15426;DHT22;7812;50.072;7.036;2024-02-21T15:08:11;10.20;99.90
15426;DHT22;7812;50.072;7.036;2024-02-21T15:10:37;10.20;99.90
15426;DHT22;7812;50.072;7.036;2024-02-21T15:13:03;10.20;99.90
15426;DHT22;7812;50.072;7.036;2024-02-21T15:15:29;10.20;99.90
15426;DHT22;7812;50.072;7.036;2024-02-21T15:17:56;10.10;99.90
15426;DHT22;7812;50.072;7.036;2024-02-21T15:20:22;10.10;99.90
15426;DHT22;7812;50.072;7.036;2024-02-21T15:22:47;10.30;99.90
15426;DHT22;7812;50.072;7.036;2024-02-21T15:25:14;10.30;99.90
15426;DHT22;7812;50.072;7.036;2024-02-21T15:27:44;10.10;99.90
15426;DHT22;7812;50.072;7.036;2024-02-21T15:30:10;10.20;99.90
15426;DHT22;7812;50.072;7.036;2024-02-21T15:32:37;10.20;99.90
15426;DHT22;7812;50.072;7.036;2024-02-21T15:35:04;10.10;99.90
15426;DHT22;7812;50.072;7.036;2024-02-21T15:37:31;10.10;99.90
15426;DHT22;7812;50.072;7.036;2024-02-21T15:39:58;10.10;99.90
15426;DHT22;7812;50.072;7.036;2024-02-21T15:42:23;10.10;99.90
15426;DHT22;7812;50.072;7.036;2024-02-21T15:44:49;10.00;99.90
15426;DHT22;7812;50.072;7.036;2024-02-21T15:47:15;10.10;99.90
15426;DHT22;7812;50.072;7.036;2024-02-21T15:49:43;10.10;99.90
15426;DHT22;7812;50.072;7.036;2024-02-21T15:52:08;10.10;99.90
15426;DHT22;7812;50.072;7.036;2024-02-21T15:54:34;10.20;99.90
15426;DHT22;7812;50.072;7.036;2024-02-21T15:57:01;10.20;99.90
15426;DHT22;7812;50.072;7.036;2024-02-21T15:59:31;10.10;99.90